createdAt,value
2019-04-21T00:01:12.650Z,53.80
2019-04-21T00:03:50.158Z,54.80
2019-04-21T00:06:36.884Z,53.80
2019-04-21T00:09:11.449Z,53.90
2019-04-21T00:11:40.785Z,53.90
2019-04-21T00:14:05.674Z,54.30
2019-04-21T00:16:32.224Z,53.60
2019-04-21T00:19:17.364Z,53.90
2019-04-21T00:21:49.233Z,54.00
2019-04-21T00:24:28.973Z,53.90
2019-04-21T00:27:05.217Z,53.80
2019-04-21T00:29:46.893Z,53.60
2019-04-21T00:32:06.757Z,53.70
2019-04-21T00:34:23.992Z,53.00
2019-04-21T00:37:05.793Z,53.20
2019-04-21T00:39:55.802Z,53.30
2019-04-21T00:42:19.549Z,53.50
2019-04-21T00:44:45.825Z,54.00
2019-04-21T00:47:27.981Z,53.40
2019-04-21T00:49:56.522Z,53.90
2019-04-21T00:52:58.138Z,53.60
2019-04-21T00:57:45.256Z,53.80
2019-04-21T01:00:20.354Z,53.40
2019-04-21T01:02:52.962Z,54.10
2019-04-21T01:05:37.457Z,53.30
2019-04-21T01:07:46.978Z,54.00
2019-04-21T01:10:15.017Z,54.60
2019-04-21T01:13:00.533Z,54.20
2019-04-21T01:15:37.269Z,53.90
2019-04-21T01:17:59.052Z,54.80
2019-04-21T01:20:17.493Z,54.30
2019-04-21T01:22:46.203Z,55.40
2019-04-21T01:25:27.381Z,54.40
2019-04-21T01:28:06.376Z,54.90
2019-04-21T01:30:45.683Z,54.60
2019-04-21T01:33:17.353Z,55.00
2019-04-21T01:35:48.468Z,54.90
2019-04-21T01:38:21.687Z,54.50
2019-04-21T01:40:52.706Z,54.80
2019-04-21T01:43:24.885Z,54.60
2019-04-21T01:45:53.558Z,56.00
2019-04-21T01:48:28.383Z,55.10
2019-04-21T01:50:58.174Z,54.70
2019-04-21T01:53:38.208Z,54.60
2019-04-21T01:56:21.699Z,55.20
2019-04-21T01:58:40.506Z,56.20
2019-04-21T02:01:24.231Z,55.60
2019-04-21T02:03:56.968Z,54.90
2019-04-21T02:06:37.803Z,54.70
2019-04-21T02:09:02.235Z,54.90
2019-04-21T02:11:39.069Z,56.20
2019-04-21T02:14:23.777Z,56.10
2019-04-21T02:16:38.638Z,56.00
2019-04-21T02:19:08.230Z,56.80
2019-04-21T02:21:36.948Z,57.10
2019-04-21T02:24:20.705Z,57.80
2019-04-21T02:26:45.672Z,57.00
2019-04-21T02:29:24.629Z,56.80
2019-04-21T02:32:01.747Z,56.30
2019-04-21T02:34:32.310Z,56.40
2019-04-21T02:37:17.661Z,56.70
2019-04-21T02:39:43.628Z,57.10
2019-04-21T02:47:21.201Z,55.50
2019-04-21T02:49:56.051Z,55.30
2019-04-21T02:52:32.011Z,55.70
2019-04-21T02:54:53.982Z,55.80
2019-04-21T02:57:22.909Z,56.50
2019-04-21T03:03:13.331Z,56.50
2019-04-21T03:05:47.118Z,59.30
2019-04-21T03:08:15.463Z,57.30
2019-04-21T03:13:21.775Z,56.90
2019-04-21T03:18:24.412Z,60.30
2019-04-21T03:21:04.793Z,62.10
2019-04-21T03:23:28.048Z,63.30
2019-04-21T03:26:00.773Z,62.20
2019-04-21T03:28:32.444Z,62.90
2019-04-21T03:36:33.364Z,59.80
2019-04-21T03:38:57.231Z,59.90
2019-04-21T03:41:10.536Z,59.10
2019-04-21T03:43:46.438Z,59.50
2019-04-21T03:46:18.447Z,60.20
2019-04-21T03:48:51.692Z,60.60
2019-04-21T03:51:23.109Z,63.50
2019-04-21T03:53:46.472Z,63.20
2019-04-21T03:56:27.061Z,63.40
2019-04-21T04:01:22.000Z,66.10
2019-04-21T04:04:20.186Z,67.50
2019-04-21T04:07:04.456Z,66.60
2019-04-21T04:09:44.593Z,66.80
2019-04-21T04:12:13.170Z,69.90
2019-04-21T04:17:17.044Z,70.20
2019-04-21T04:19:56.401Z,70.50
2019-04-21T04:29:59.314Z,72.90
2019-04-21T04:32:42.142Z,71.90
2019-04-21T04:37:40.570Z,72.10
2019-04-21T04:50:49.497Z,74.70
2019-04-21T04:53:21.842Z,75.10
2019-04-21T04:55:45.725Z,76.30
2019-04-21T04:58:22.161Z,77.20
2019-04-21T05:01:08.037Z,77.70
2019-04-21T05:03:39.877Z,79.60
2019-04-21T05:09:03.524Z,81.30
2019-04-21T05:11:39.599Z,82.10
2019-04-21T05:14:08.985Z,80.50
2019-04-21T05:19:10.563Z,81.70
2019-04-21T05:21:34.237Z,82.40
2019-04-21T05:23:55.871Z,83.30
2019-04-21T05:26:23.055Z,83.90
2019-04-21T05:28:55.400Z,85.80
2019-04-21T05:31:38.650Z,85.20
2019-04-21T05:34:22.065Z,85.80
2019-04-21T05:36:53.861Z,85.90
2019-04-21T05:39:23.141Z,85.60
2019-04-21T05:41:50.795Z,87.40
2019-04-21T05:44:44.477Z,88.70
2019-04-21T05:47:15.952Z,89.40
2019-04-21T05:49:43.853Z,88.10
2019-04-21T05:52:08.215Z,88.80
2019-04-21T05:54:49.636Z,88.60
2019-04-21T05:57:14.651Z,86.60
2019-04-21T05:59:51.595Z,88.60
2019-04-21T06:02:27.763Z,89.90
2019-04-21T06:05:09.904Z,88.10
2019-04-21T06:07:28.834Z,87.40
2019-04-21T06:10:00.014Z,86.40
2019-04-21T06:12:35.924Z,84.00
2019-04-21T06:15:02.592Z,81.20
2019-04-21T06:17:34.872Z,81.60
2019-04-21T06:20:05.691Z,80.70
2019-04-21T06:22:38.624Z,82.00
2019-04-21T06:27:46.931Z,85.70
2019-04-21T06:30:10.657Z,86.20
2019-04-21T06:35:48.584Z,83.80
2019-04-21T06:38:19.326Z,82.00
2019-04-21T06:40:42.496Z,84.90
2019-04-21T06:43:20.983Z,84.70
2019-04-21T06:45:51.109Z,84.70
2019-04-21T06:48:20.770Z,80.10
2019-04-21T06:50:52.943Z,79.70
2019-04-21T06:53:20.778Z,80.00
2019-04-21T06:55:52.048Z,81.10
2019-04-21T06:58:18.364Z,81.00
2019-04-21T07:00:56.318Z,81.70
2019-04-21T07:03:29.751Z,78.60
2019-04-21T07:06:03.500Z,80.30
2019-04-21T07:08:37.985Z,79.80
2019-04-21T07:11:04.070Z,76.60
2019-04-21T07:13:34.543Z,76.30
2019-04-21T07:16:15.663Z,73.10
2019-04-21T07:18:41.091Z,75.40
2019-04-21T07:21:15.831Z,67.00
2019-04-21T07:23:50.222Z,67.80
2019-04-21T07:26:20.724Z,60.50
2019-04-21T07:28:58.182Z,62.00
2019-04-21T07:31:20.803Z,58.00
2019-04-21T07:36:35.445Z,58.30
2019-04-21T07:38:57.335Z,57.90
2019-04-21T07:41:18.401Z,56.80
2019-04-21T07:43:57.226Z,57.60
2019-04-21T07:46:25.405Z,56.40
2019-04-21T07:49:12.793Z,58.90
2019-04-21T07:51:56.483Z,59.60
2019-04-21T07:54:33.587Z,57.70
2019-04-21T07:56:40.167Z,56.90
2019-04-21T07:59:39.626Z,55.10
2019-04-21T08:02:14.166Z,56.20
2019-04-21T08:07:11.743Z,58.20
2019-04-21T08:09:37.197Z,58.70
2019-04-21T08:12:04.154Z,56.90
2019-04-21T08:14:44.110Z,57.90
2019-04-21T08:17:09.813Z,56.10
2019-04-21T08:19:46.099Z,56.20
2019-04-21T08:22:20.211Z,56.30
2019-04-21T08:24:50.783Z,55.50
2019-04-21T08:27:18.921Z,55.10
2019-04-21T08:29:52.164Z,55.60
2019-04-21T08:32:26.544Z,54.60
2019-04-21T08:35:14.739Z,54.00
2019-04-21T08:37:27.580Z,53.80
2019-04-21T08:40:05.079Z,55.00
2019-04-21T08:42:33.178Z,54.70
2019-04-21T08:45:00.610Z,54.50
2019-04-21T08:47:36.455Z,51.80
2019-04-21T08:50:09.625Z,53.60
2019-04-21T08:52:42.711Z,53.60
2019-04-21T08:55:21.933Z,51.60
2019-04-21T08:58:12.200Z,51.00
2019-04-21T09:00:33.726Z,52.60
2019-04-21T09:03:07.589Z,51.20
2019-04-21T09:05:41.164Z,50.10
2019-04-21T09:08:15.268Z,49.40
2019-04-21T09:10:42.209Z,50.50
2019-04-21T09:13:10.289Z,49.50
2019-04-21T09:15:43.047Z,48.20
2019-04-21T09:18:17.533Z,48.60
2019-04-21T09:20:52.158Z,46.80
2019-04-21T09:23:24.215Z,45.20
2019-04-21T09:26:00.415Z,46.40
2019-04-21T09:28:21.190Z,44.90
2019-04-21T09:30:46.466Z,43.70
2019-04-21T09:33:11.717Z,42.90
2019-04-21T09:35:49.192Z,41.50
2019-04-21T09:38:26.233Z,43.80
2019-04-21T09:40:49.666Z,43.20
2019-04-21T09:43:29.746Z,46.00
2019-04-21T09:45:51.965Z,43.50
2019-04-21T09:48:25.920Z,44.60
2019-04-21T09:50:57.314Z,43.40
2019-04-21T09:53:32.801Z,45.60
2019-04-21T09:56:04.901Z,44.40
2019-04-21T09:58:38.681Z,43.20
2019-04-21T10:01:15.994Z,44.50
2019-04-21T10:03:46.111Z,42.90
2019-04-21T10:06:09.165Z,41.00
2019-04-21T10:08:40.830Z,44.00
2019-04-21T10:11:14.147Z,41.20
2019-04-21T10:13:46.258Z,43.50
2019-04-21T10:16:34.847Z,42.80
2019-04-21T10:19:05.197Z,43.10
2019-04-21T10:21:36.045Z,42.80
2019-04-21T10:24:06.496Z,42.10
2019-04-21T10:26:43.383Z,43.60
2019-04-21T10:29:21.770Z,40.60
2019-04-21T10:31:46.860Z,38.90
2019-04-21T10:34:19.124Z,38.70
2019-04-21T10:36:49.432Z,42.00
2019-04-21T10:39:19.986Z,42.40
2019-04-21T10:41:51.136Z,40.40
2019-04-21T10:44:21.427Z,40.30
2019-04-21T10:46:52.535Z,41.10
2019-04-21T10:49:24.483Z,39.60
2019-04-21T10:51:55.161Z,39.20
2019-04-21T10:54:26.197Z,40.30
2019-04-21T10:56:58.780Z,36.70
2019-04-21T10:59:29.091Z,37.90
2019-04-21T11:02:01.051Z,38.70
2019-04-21T11:04:36.755Z,39.50
2019-04-21T11:07:13.430Z,38.70
2019-04-21T11:09:39.948Z,37.90
2019-04-21T11:12:10.521Z,38.90
2019-04-21T11:14:41.157Z,37.50
2019-04-21T11:17:12.289Z,37.40
2019-04-21T11:19:43.118Z,37.00
2019-04-21T11:22:14.634Z,35.80
2019-04-21T11:24:45.052Z,35.00
2019-04-21T11:27:15.289Z,34.20
2019-04-21T11:29:45.567Z,34.40
2019-04-21T11:32:16.834Z,36.10
2019-04-21T11:34:47.257Z,34.40
2019-04-21T11:37:19.919Z,33.70
2019-04-21T11:39:57.333Z,34.10
2019-04-21T11:42:30.423Z,33.20
2019-04-21T11:45:00.757Z,31.20
2019-04-21T11:47:36.374Z,31.70
2019-04-21T11:50:07.501Z,31.90
2019-04-21T11:52:38.908Z,29.70
2019-04-21T11:55:09.444Z,27.30
2019-04-21T11:57:44.627Z,27.60
2019-04-21T12:00:13.531Z,26.50
2019-04-21T12:02:43.938Z,26.80
2019-04-21T12:05:15.137Z,26.80
2019-04-21T12:07:45.583Z,26.50
2019-04-21T12:10:16.004Z,27.10
2019-04-21T12:12:47.452Z,27.70
2019-04-21T12:15:18.845Z,29.60
2019-04-21T12:17:50.099Z,28.20
2019-04-21T12:20:20.917Z,27.70
2019-04-21T12:22:51.208Z,28.60
2019-04-21T12:25:23.453Z,28.60
2019-04-21T12:27:54.151Z,27.60
2019-04-21T12:30:24.644Z,28.80
2019-04-21T12:32:57.989Z,28.00
2019-04-21T12:35:28.099Z,27.60
2019-04-21T12:37:58.538Z,28.50
2019-04-21T12:40:28.811Z,29.00
2019-04-21T12:42:59.085Z,28.20
2019-04-21T12:45:29.502Z,30.70
2019-04-21T12:48:00.083Z,29.50
2019-04-21T12:50:32.055Z,29.30
2019-04-21T12:53:03.361Z,28.70
2019-04-21T12:55:37.369Z,30.00
2019-04-21T12:58:07.571Z,31.30
2019-04-21T13:00:38.874Z,31.50
2019-04-21T13:03:09.902Z,30.40
2019-04-21T13:05:40.239Z,31.10
2019-04-21T13:08:11.461Z,31.10
2019-04-21T13:10:42.344Z,30.90
2019-04-21T13:13:14.241Z,29.70
2019-04-21T13:15:45.376Z,30.10
2019-04-21T13:18:16.454Z,32.50
2019-04-21T13:20:46.876Z,30.50
2019-04-21T13:23:17.156Z,30.50
2019-04-21T13:25:47.844Z,31.40
2019-04-21T13:28:18.729Z,31.20
2019-04-21T13:30:50.518Z,30.10
2019-04-21T13:33:21.145Z,30.40
2019-04-21T13:35:53.020Z,31.10
2019-04-21T13:38:34.341Z,30.20
2019-04-21T13:41:22.632Z,30.10
2019-04-21T13:43:41.313Z,30.10
2019-04-21T13:46:12.134Z,30.90
2019-04-21T13:48:42.630Z,30.60
2019-04-21T13:51:13.404Z,32.20
2019-04-21T13:53:43.976Z,31.00
2019-04-21T13:56:14.421Z,30.90
2019-04-21T13:58:44.645Z,31.70
2019-04-21T14:01:16.028Z,30.90
2019-04-21T14:03:47.317Z,30.20
2019-04-21T14:06:18.441Z,30.20
2019-04-21T14:08:50.610Z,30.90
2019-04-21T14:11:20.776Z,30.80
2019-04-21T14:13:52.221Z,30.00
2019-04-21T14:16:22.700Z,29.90
2019-04-21T14:18:52.973Z,30.10
2019-04-21T14:21:23.537Z,30.80
2019-04-21T14:23:54.595Z,30.00
2019-04-21T14:26:26.851Z,30.10
2019-04-21T14:28:58.888Z,30.00
2019-04-21T14:31:30.485Z,28.70
2019-04-21T14:34:01.759Z,28.80
2019-04-21T14:36:32.729Z,28.80
2019-04-21T14:39:04.933Z,28.00
2019-04-21T14:41:35.838Z,28.60
2019-04-21T14:44:06.884Z,29.80
2019-04-21T14:46:39.545Z,28.60
2019-04-21T14:49:12.958Z,28.30
2019-04-21T14:51:50.965Z,29.40
2019-04-21T14:54:36.390Z,29.50
2019-04-21T14:57:07.286Z,28.40
2019-04-21T14:59:37.569Z,29.40
2019-04-21T15:02:07.908Z,29.40
2019-04-21T15:04:39.715Z,29.30
2019-04-21T15:07:10.037Z,29.90
2019-04-21T15:09:42.537Z,28.50
2019-04-21T15:12:12.299Z,29.40
2019-04-21T15:14:42.570Z,29.30
2019-04-21T15:17:15.925Z,30.30
2019-04-21T15:19:53.684Z,29.20
2019-04-21T15:22:16.817Z,28.90
2019-04-21T15:24:48.111Z,28.60
2019-04-21T15:27:19.026Z,28.30
2019-04-21T15:29:50.979Z,27.80
2019-04-21T15:32:22.288Z,28.40
2019-04-21T15:34:52.533Z,27.80
2019-04-21T15:37:24.136Z,29.20
2019-04-21T15:39:54.440Z,27.90
2019-04-21T15:42:24.734Z,27.80
2019-04-21T15:44:55.008Z,28.20
2019-04-21T15:47:26.234Z,27.40
2019-04-21T15:50:04.728Z,27.10
2019-04-21T15:52:29.942Z,27.20
2019-04-21T15:55:03.291Z,27.90
2019-04-21T15:57:42.542Z,27.20
2019-04-21T16:00:16.389Z,26.70
2019-04-21T16:02:48.563Z,26.10
2019-04-21T16:05:19.898Z,26.50
2019-04-21T16:07:50.176Z,26.20
2019-04-21T16:10:34.326Z,26.80
2019-04-21T16:12:53.961Z,26.70
2019-04-21T16:15:24.306Z,28.10
2019-04-21T16:17:55.240Z,27.40
2019-04-21T16:20:25.986Z,27.70
2019-04-21T16:22:56.833Z,27.70
2019-04-21T16:25:28.661Z,28.00
2019-04-21T16:27:59.481Z,28.30
2019-04-21T16:30:30.841Z,29.00
2019-04-21T16:33:01.936Z,28.40
2019-04-21T16:35:33.716Z,28.30
2019-04-21T16:38:05.934Z,27.80
2019-04-21T16:40:48.201Z,27.70
2019-04-21T16:43:08.444Z,27.80
2019-04-21T16:45:39.095Z,27.80
2019-04-21T16:48:09.574Z,28.40
2019-04-21T16:50:39.863Z,29.40
2019-04-21T16:53:20.230Z,30.30
2019-04-21T16:55:55.119Z,29.90
2019-04-21T16:58:29.002Z,29.80
2019-04-21T17:01:05.096Z,30.20
2019-04-21T17:03:32.690Z,31.00
2019-04-21T17:06:04.700Z,30.20
2019-04-21T17:08:35.030Z,31.30
2019-04-21T17:11:12.891Z,31.80
2019-04-21T17:13:38.314Z,31.60
2019-04-21T17:16:38.913Z,30.00
2019-04-21T17:18:54.981Z,29.60
2019-04-21T17:21:13.288Z,29.50
2019-04-21T17:23:46.301Z,30.50
2019-04-21T17:26:17.162Z,31.50
2019-04-21T17:28:48.816Z,31.40
2019-04-21T17:31:20.282Z,31.00
2019-04-21T17:33:57.767Z,31.10
2019-04-21T17:36:23.196Z,31.20
2019-04-21T17:38:54.296Z,32.20
2019-04-21T17:41:33.378Z,32.80
2019-04-21T17:43:58.317Z,33.20
2019-04-21T17:46:38.910Z,33.00
2019-04-21T17:49:01.140Z,33.10
2019-04-21T17:51:33.211Z,34.30
2019-04-21T17:54:13.662Z,34.80
2019-04-21T17:57:04.377Z,36.00
2019-04-21T17:59:43.157Z,36.70
2019-04-21T18:02:02.251Z,36.60
2019-04-21T18:04:37.546Z,37.10
2019-04-21T18:07:27.651Z,39.40
2019-04-21T18:10:04.748Z,41.90
2019-04-21T18:12:33.401Z,41.80
2019-04-21T18:14:59.858Z,42.10
2019-04-21T18:17:22.739Z,42.30
2019-04-21T18:19:55.215Z,43.30
2019-04-21T18:22:32.128Z,43.30
2019-04-21T18:25:08.764Z,42.80
2019-04-21T18:27:34.442Z,42.40
2019-04-21T18:30:31.833Z,43.40
2019-04-21T18:33:04.708Z,42.60
2019-04-21T18:35:55.062Z,42.60
2019-04-21T18:38:45.138Z,42.90
2019-04-21T18:41:03.873Z,43.10
2019-04-21T18:44:09.004Z,43.20
2019-04-21T18:46:33.094Z,43.10
2019-04-21T18:49:00.758Z,42.80
2019-04-21T18:51:42.892Z,41.80
2019-04-21T18:54:27.182Z,43.40
2019-04-21T18:56:50.996Z,43.20
2019-04-21T18:59:08.859Z,42.90
2019-04-21T19:01:40.748Z,44.00
2019-04-21T19:04:19.673Z,44.30
2019-04-21T19:06:59.449Z,44.40
2019-04-21T19:09:47.606Z,44.70
2019-04-21T19:12:10.083Z,44.70
2019-04-21T19:17:38.198Z,43.70
2019-04-21T19:22:17.168Z,46.90
2019-04-21T19:24:48.442Z,47.10
2019-04-21T19:27:22.771Z,45.30
2019-04-21T19:32:23.908Z,47.00
2019-04-21T19:34:41.555Z,47.40
2019-04-21T19:37:18.266Z,46.40
2019-04-21T19:40:00.501Z,48.00
2019-04-21T19:42:25.497Z,47.50
2019-04-21T19:45:06.032Z,47.30
2019-04-21T19:47:38.912Z,47.70
2019-04-21T19:50:10.734Z,45.50
2019-04-21T19:52:36.634Z,45.50
2019-04-21T19:54:58.606Z,45.60
2019-04-21T19:57:31.205Z,45.70
2019-04-21T20:00:04.328Z,46.00
2019-04-21T20:02:34.571Z,46.90
2019-04-21T20:05:13.015Z,47.30
2019-04-21T20:08:02.703Z,48.60
2019-04-21T20:10:35.470Z,48.50
2019-04-21T20:13:06.424Z,49.90
2019-04-21T20:15:42.305Z,50.20
2019-04-21T20:18:02.032Z,49.90
2019-04-21T20:20:21.411Z,50.00
2019-04-21T20:22:53.723Z,50.00
2019-04-21T20:25:25.632Z,51.50
2019-04-21T20:28:04.917Z,52.50
2019-04-21T20:30:42.678Z,52.90
2019-04-21T20:38:15.689Z,53.70
2019-04-21T20:40:45.389Z,54.30
2019-04-21T20:43:28.507Z,55.20
2019-04-21T20:48:25.261Z,55.80
2019-04-21T20:51:06.413Z,55.90
2019-04-21T20:53:32.721Z,56.20
2019-04-21T20:56:00.600Z,57.00
2019-04-21T20:58:37.287Z,57.30
2019-04-21T21:01:25.739Z,57.10
2019-04-21T21:03:39.346Z,55.50
2019-04-21T21:06:16.152Z,56.40
2019-04-21T21:08:44.887Z,57.50
2019-04-21T21:11:21.518Z,58.00
2019-04-21T21:13:52.159Z,57.10
2019-04-21T21:19:08.163Z,53.80
2019-04-21T21:21:24.308Z,52.90
2019-04-21T21:24:00.618Z,52.90
2019-04-21T21:26:31.287Z,50.60
2019-04-21T21:28:56.341Z,49.70
2019-04-21T21:31:38.727Z,49.80
2019-04-21T21:34:10.048Z,49.80
2019-04-21T21:36:41.535Z,49.20
2019-04-21T21:39:12.830Z,48.90
2019-04-21T21:41:31.776Z,49.10
2019-04-21T21:44:05.253Z,49.30
2019-04-21T21:46:45.618Z,49.60
2019-04-21T21:49:18.720Z,49.90
2019-04-21T21:51:44.995Z,50.20
2019-04-21T21:54:07.614Z,50.40
2019-04-21T21:56:38.531Z,50.40
2019-04-21T21:59:16.047Z,50.80
2019-04-21T22:01:47.024Z,51.10
2019-04-21T22:04:20.954Z,51.30
2019-04-21T22:06:55.314Z,51.30
2019-04-21T22:09:18.582Z,51.50
2019-04-21T22:11:53.576Z,52.60
2019-04-21T22:14:25.877Z,52.10
2019-04-21T22:17:11.086Z,53.10
2019-04-21T22:19:48.892Z,54.10
2019-04-21T22:22:16.814Z,53.50
2019-04-21T22:24:46.915Z,55.20
2019-04-21T22:27:01.330Z,54.90
2019-04-21T22:29:38.146Z,54.20
2019-04-21T22:32:11.356Z,55.10
2019-04-21T22:34:44.034Z,55.60
2019-04-21T22:37:28.811Z,55.50
2019-04-21T22:39:57.005Z,55.80
2019-04-21T22:42:20.952Z,55.90
2019-04-21T22:44:44.000Z,56.90
2019-04-21T22:47:22.400Z,58.60
2019-04-21T22:49:46.568Z,59.20
2019-04-21T22:52:21.045Z,58.20
2019-04-21T22:54:50.673Z,59.30
2019-04-21T22:57:24.894Z,59.60
2019-04-21T22:59:59.920Z,58.60
2019-04-21T23:02:29.965Z,58.70
2019-04-21T23:05:00.115Z,58.40
2019-04-21T23:07:32.850Z,58.20
2019-04-21T23:10:03.484Z,58.40
2019-04-21T23:12:38.707Z,58.00
2019-04-21T23:15:13.923Z,57.80
2019-04-21T23:18:02.155Z,57.50
2019-04-21T23:20:36.819Z,57.90
2019-04-21T23:23:11.800Z,57.10
2019-04-21T23:25:39.138Z,57.10
2019-04-21T23:28:09.461Z,57.20
2019-04-21T23:30:45.819Z,57.20
2019-04-21T23:33:03.496Z,57.80
2019-04-21T23:35:34.243Z,58.50
2019-04-21T23:38:04.628Z,57.50
2019-04-21T23:40:31.461Z,57.00
2019-04-21T23:43:09.641Z,57.30
2019-04-21T23:45:38.188Z,57.00
2019-04-21T23:48:18.441Z,57.10
2019-04-21T23:50:49.455Z,57.30
2019-04-21T23:53:11.228Z,57.20
2019-04-21T23:55:41.704Z,57.90
2019-04-21T23:58:18.651Z,58.00
